sensor_id;sensor_type;location;lat;lon;timestamp;P1;durP1;ratioP1;P2;durP2;ratioP2
37273;SDS011;23161;51.250;5.554;2023-12-20T00:01:50;12.85;;;4.05;;
37273;SDS011;23161;51.250;5.554;2023-12-20T00:04:16;13.45;;;4.93;;
37273;SDS011;23161;51.250;5.554;2023-12-20T00:06:42;14.50;;;6.47;;
37273;SDS011;23161;51.250;5.554;2023-12-20T00:09:08;11.50;;;3.05;;
37273;SDS011;23161;51.250;5.554;2023-12-20T00:11:34;15.57;;;3.08;;
37273;SDS011;23161;51.250;5.554;2023-12-20T00:14:00;7.07;;;2.90;;
37273;SDS011;23161;51.250;5.554;2023-12-20T00:16:25;17.23;;;4.85;;
37273;SDS011;23161;51.250;5.554;2023-12-20T00:18:52;10.73;;;5.18;;
37273;SDS011;23161;51.250;5.554;2023-12-20T00:21:17;10.57;;;3.30;;
37273;SDS011;23161;51.250;5.554;2023-12-20T00:23:44;4.85;;;2.65;;
37273;SDS011;23161;51.250;5.554;2023-12-20T00:26:10;4.10;;;2.60;;
37273;SDS011;23161;51.250;5.554;2023-12-20T00:28:36;4.90;;;3.33;;
37273;SDS011;23161;51.250;5.554;2023-12-20T00:31:03;11.70;;;2.78;;
37273;SDS011;23161;51.250;5.554;2023-12-20T00:33:29;6.22;;;2.47;;
37273;SDS011;23161;51.250;5.554;2023-12-20T00:35:56;3.28;;;1.95;;
37273;SDS011;23161;51.250;5.554;2023-12-20T00:38:21;12.65;;;3.67;;
37273;SDS011;23161;51.250;5.554;2023-12-20T00:40:48;7.90;;;3.97;;
37273;SDS011;23161;51.250;5.554;2023-12-20T00:43:15;6.55;;;2.33;;
37273;SDS011;23161;51.250;5.554;2023-12-20T00:45:40;9.73;;;2.30;;
37273;SDS011;23161;51.250;5.554;2023-12-20T00:48:06;7.55;;;2.90;;
37273;SDS011;23161;51.250;5.554;2023-12-20T00:50:32;5.97;;;1.98;;
37273;SDS011;23161;51.250;5.554;2023-12-20T00:52:58;3.33;;;1.77;;
37273;SDS011;23161;51.250;5.554;2023-12-20T00:55:24;14.88;;;2.60;;
37273;SDS011;23161;51.250;5.554;2023-12-20T00:57:50;4.22;;;2.58;;
37273;SDS011;23161;51.250;5.554;2023-12-20T01:00:16;8.85;;;2.25;;
37273;SDS011;23161;51.250;5.554;2023-12-20T01:02:42;4.68;;;2.55;;
37273;SDS011;23161;51.250;5.554;2023-12-20T01:05:08;3.05;;;1.95;;
37273;SDS011;23161;51.250;5.554;2023-12-20T01:07:34;14.20;;;2.60;;
37273;SDS011;23161;51.250;5.554;2023-12-20T01:10:00;13.20;;;4.03;;
37273;SDS011;23161;51.250;5.554;2023-12-20T01:12:26;5.65;;;2.70;;
37273;SDS011;23161;51.250;5.554;2023-12-20T01:14:52;9.45;;;2.25;;
37273;SDS011;23161;51.250;5.554;2023-12-20T01:17:19;4.72;;;2.45;;
37273;SDS011;23161;51.250;5.554;2023-12-20T01:19:44;13.73;;;4.45;;
37273;SDS011;23161;51.250;5.554;2023-12-20T01:22:11;13.23;;;4.18;;
37273;SDS011;23161;51.250;5.554;2023-12-20T01:24:36;6.40;;;2.15;;
37273;SDS011;23161;51.250;5.554;2023-12-20T01:27:03;8.80;;;3.83;;
37273;SDS011;23161;51.250;5.554;2023-12-20T01:29:29;3.92;;;2.72;;
37273;SDS011;23161;51.250;5.554;2023-12-20T01:31:55;5.22;;;1.90;;
37273;SDS011;23161;51.250;5.554;2023-12-20T01:34:20;9.73;;;4.18;;
37273;SDS011;23161;51.250;5.554;2023-12-20T01:36:47;9.68;;;2.10;;
37273;SDS011;23161;51.250;5.554;2023-12-20T01:39:12;6.03;;;2.45;;
37273;SDS011;23161;51.250;5.554;2023-12-20T01:41:39;5.35;;;3.95;;
37273;SDS011;23161;51.250;5.554;2023-12-20T01:44:04;13.07;;;3.08;;
37273;SDS011;23161;51.250;5.554;2023-12-20T01:46:31;11.00;;;4.78;;
37273;SDS011;23161;51.250;5.554;2023-12-20T01:48:57;10.07;;;4.30;;
37273;SDS011;23161;51.250;5.554;2023-12-20T01:51:23;4.60;;;3.30;;
37273;SDS011;23161;51.250;5.554;2023-12-20T01:53:49;8.85;;;2.47;;
37273;SDS011;23161;51.250;5.554;2023-12-20T01:56:16;9.05;;;3.88;;
37273;SDS011;23161;51.250;5.554;2023-12-20T01:58:46;5.97;;;2.70;;
37273;SDS011;23161;51.250;5.554;2023-12-20T02:01:12;7.47;;;3.13;;
37273;SDS011;23161;51.250;5.554;2023-12-20T02:03:42;6.03;;;3.40;;
37273;SDS011;23161;51.250;5.554;2023-12-20T02:06:08;8.30;;;2.90;;
37273;SDS011;23161;51.250;5.554;2023-12-20T02:08:34;8.15;;;3.65;;
37273;SDS011;23161;51.250;5.554;2023-12-20T02:11:01;7.30;;;2.95;;
37273;SDS011;23161;51.250;5.554;2023-12-20T02:13:27;12.00;;;4.57;;
37273;SDS011;23161;51.250;5.554;2023-12-20T02:15:53;6.88;;;4.25;;
37273;SDS011;23161;51.250;5.554;2023-12-20T02:18:20;11.63;;;3.35;;
37273;SDS011;23161;51.250;5.554;2023-12-20T02:20:46;16.83;;;4.97;;
37273;SDS011;23161;51.250;5.554;2023-12-20T02:23:11;6.82;;;3.50;;
37273;SDS011;23161;51.250;5.554;2023-12-20T02:25:38;8.00;;;3.55;;
37273;SDS011;23161;51.250;5.554;2023-12-20T02:28:03;8.38;;;4.95;;
37273;SDS011;23161;51.250;5.554;2023-12-20T02:30:30;9.18;;;4.57;;
37273;SDS011;23161;51.250;5.554;2023-12-20T02:32:56;6.55;;;2.90;;
37273;SDS011;23161;51.250;5.554;2023-12-20T02:35:22;5.57;;;4.10;;
37273;SDS011;23161;51.250;5.554;2023-12-20T02:37:48;13.68;;;4.60;;
37273;SDS011;23161;51.250;5.554;2023-12-20T02:40:14;4.07;;;3.70;;
37273;SDS011;23161;51.250;5.554;2023-12-20T02:42:40;11.70;;;4.28;;
37273;SDS011;23161;51.250;5.554;2023-12-20T02:45:06;13.82;;;4.03;;
37273;SDS011;23161;51.250;5.554;2023-12-20T02:47:32;21.85;;;4.70;;
37273;SDS011;23161;51.250;5.554;2023-12-20T02:49:58;14.55;;;4.72;;
37273;SDS011;23161;51.250;5.554;2023-12-20T02:52:24;5.88;;;3.17;;
37273;SDS011;23161;51.250;5.554;2023-12-20T02:54:50;5.22;;;4.63;;
37273;SDS011;23161;51.250;5.554;2023-12-20T02:57:16;8.05;;;4.85;;
37273;SDS011;23161;51.250;5.554;2023-12-20T02:59:42;10.82;;;5.03;;
37273;SDS011;23161;51.250;5.554;2023-12-20T03:02:08;11.88;;;6.03;;
37273;SDS011;23161;51.250;5.554;2023-12-20T03:04:34;16.10;;;4.75;;
37273;SDS011;23161;51.250;5.554;2023-12-20T03:07:00;6.45;;;4.15;;
37273;SDS011;23161;51.250;5.554;2023-12-20T03:09:26;13.73;;;3.55;;
37273;SDS011;23161;51.250;5.554;2023-12-20T03:11:52;4.82;;;4.15;;
37273;SDS011;23161;51.250;5.554;2023-12-20T03:14:18;7.93;;;4.85;;
37273;SDS011;23161;51.250;5.554;2023-12-20T03:16:50;11.70;;;5.13;;
37273;SDS011;23161;51.250;5.554;2023-12-20T03:19:17;11.55;;;4.78;;
37273;SDS011;23161;51.250;5.554;2023-12-20T03:21:44;15.77;;;5.47;;
37273;SDS011;23161;51.250;5.554;2023-12-20T03:24:10;6.68;;;5.20;;
37273;SDS011;23161;51.250;5.554;2023-12-20T03:26:36;14.38;;;7.38;;
37273;SDS011;23161;51.250;5.554;2023-12-20T03:29:02;9.18;;;5.13;;
37273;SDS011;23161;51.250;5.554;2023-12-20T03:31:28;10.60;;;5.60;;
37273;SDS011;23161;51.250;5.554;2023-12-20T03:33:53;21.80;;;5.18;;
37273;SDS011;23161;51.250;5.554;2023-12-20T03:36:19;11.98;;;5.15;;
37273;SDS011;23161;51.250;5.554;2023-12-20T03:38:46;12.40;;;4.82;;
37273;SDS011;23161;51.250;5.554;2023-12-20T03:41:11;12.57;;;7.57;;
37273;SDS011;23161;51.250;5.554;2023-12-20T03:43:38;18.80;;;7.05;;
37273;SDS011;23161;51.250;5.554;2023-12-20T03:46:04;15.65;;;5.00;;
37273;SDS011;23161;51.250;5.554;2023-12-20T03:48:33;11.95;;;6.28;;
37273;SDS011;23161;51.250;5.554;2023-12-20T03:50:58;15.60;;;6.65;;
37273;SDS011;23161;51.250;5.554;2023-12-20T03:53:24;15.55;;;6.63;;
37273;SDS011;23161;51.250;5.554;2023-12-20T03:55:51;15.85;;;7.45;;
37273;SDS011;23161;51.250;5.554;2023-12-20T03:58:17;20.83;;;8.60;;
37273;SDS011;23161;51.250;5.554;2023-12-20T04:00:43;19.58;;;6.95;;
37273;SDS011;23161;51.250;5.554;2023-12-20T04:03:09;13.20;;;6.45;;
37273;SDS011;23161;51.250;5.554;2023-12-20T04:05:39;10.88;;;5.60;;
37273;SDS011;23161;51.250;5.554;2023-12-20T04:08:08;6.57;;;4.95;;
37273;SDS011;23161;51.250;5.554;2023-12-20T04:10:34;12.75;;;6.60;;
37273;SDS011;23161;51.250;5.554;2023-12-20T04:13:00;12.18;;;5.70;;
37273;SDS011;23161;51.250;5.554;2023-12-20T04:15:25;11.52;;;7.45;;
37273;SDS011;23161;51.250;5.554;2023-12-20T04:17:52;23.48;;;6.53;;
37273;SDS011;23161;51.250;5.554;2023-12-20T04:20:17;23.33;;;6.15;;
37273;SDS011;23161;51.250;5.554;2023-12-20T04:22:43;11.90;;;6.45;;
37273;SDS011;23161;51.250;5.554;2023-12-20T04:25:10;8.00;;;6.78;;
37273;SDS011;23161;51.250;5.554;2023-12-20T04:27:36;9.88;;;6.32;;
37273;SDS011;23161;51.250;5.554;2023-12-20T04:30:02;13.30;;;7.43;;
37273;SDS011;23161;51.250;5.554;2023-12-20T04:32:29;7.57;;;4.63;;
37273;SDS011;23161;51.250;5.554;2023-12-20T04:34:55;8.18;;;4.63;;
37273;SDS011;23161;51.250;5.554;2023-12-20T04:37:21;12.50;;;5.45;;
37273;SDS011;23161;51.250;5.554;2023-12-20T04:39:47;7.68;;;4.82;;
37273;SDS011;23161;51.250;5.554;2023-12-20T04:42:13;13.30;;;4.35;;
37273;SDS011;23161;51.250;5.554;2023-12-20T04:44:39;21.10;;;6.00;;
37273;SDS011;23161;51.250;5.554;2023-12-20T04:47:05;13.02;;;5.13;;
37273;SDS011;23161;51.250;5.554;2023-12-20T04:49:31;17.48;;;5.55;;
37273;SDS011;23161;51.250;5.554;2023-12-20T04:51:57;7.05;;;3.42;;
37273;SDS011;23161;51.250;5.554;2023-12-20T04:54:23;4.68;;;3.70;;
37273;SDS011;23161;51.250;5.554;2023-12-20T04:56:49;14.02;;;5.00;;
37273;SDS011;23161;51.250;5.554;2023-12-20T04:59:15;12.85;;;3.78;;
37273;SDS011;23161;51.250;5.554;2023-12-20T05:01:41;14.00;;;5.97;;
37273;SDS011;23161;51.250;5.554;2023-12-20T05:04:08;13.20;;;4.78;;
37273;SDS011;23161;51.250;5.554;2023-12-20T05:06:33;9.43;;;4.00;;
37273;SDS011;23161;51.250;5.554;2023-12-20T05:08:59;14.38;;;4.50;;
37273;SDS011;23161;51.250;5.554;2023-12-20T05:11:25;18.20;;;6.30;;
37273;SDS011;23161;51.250;5.554;2023-12-20T05:13:51;22.33;;;5.00;;
37273;SDS011;23161;51.250;5.554;2023-12-20T05:16:18;7.93;;;4.68;;
37273;SDS011;23161;51.250;5.554;2023-12-20T05:18:44;8.25;;;4.63;;
37273;SDS011;23161;51.250;5.554;2023-12-20T05:21:11;13.60;;;7.60;;
37273;SDS011;23161;51.250;5.554;2023-12-20T05:23:37;5.45;;;4.50;;
37273;SDS011;23161;51.250;5.554;2023-12-20T05:26:11;10.20;;;4.95;;
37273;SDS011;23161;51.250;5.554;2023-12-20T05:28:38;10.70;;;6.00;;
37273;SDS011;23161;51.250;5.554;2023-12-20T05:31:03;5.85;;;3.78;;
37273;SDS011;23161;51.250;5.554;2023-12-20T05:33:29;14.15;;;5.55;;
37273;SDS011;23161;51.250;5.554;2023-12-20T05:35:55;21.00;;;4.28;;
37273;SDS011;23161;51.250;5.554;2023-12-20T05:38:21;12.88;;;5.07;;
37273;SDS011;23161;51.250;5.554;2023-12-20T05:40:47;16.65;;;6.30;;
37273;SDS011;23161;51.250;5.554;2023-12-20T05:43:13;10.80;;;4.85;;
37273;SDS011;23161;51.250;5.554;2023-12-20T05:45:39;16.42;;;5.22;;
37273;SDS011;23161;51.250;5.554;2023-12-20T05:48:05;11.98;;;5.32;;
37273;SDS011;23161;51.250;5.554;2023-12-20T05:50:31;6.90;;;4.88;;
37273;SDS011;23161;51.250;5.554;2023-12-20T05:52:57;10.80;;;3.63;;
37273;SDS011;23161;51.250;5.554;2023-12-20T05:55:23;11.23;;;5.10;;
37273;SDS011;23161;51.250;5.554;2023-12-20T05:57:49;20.10;;;5.50;;
37273;SDS011;23161;51.250;5.554;2023-12-20T06:00:15;6.85;;;4.32;;
37273;SDS011;23161;51.250;5.554;2023-12-20T06:02:41;12.75;;;4.32;;
37273;SDS011;23161;51.250;5.554;2023-12-20T06:05:08;10.13;;;5.03;;
37273;SDS011;23161;51.250;5.554;2023-12-20T06:07:34;13.18;;;4.03;;
37273;SDS011;23161;51.250;5.554;2023-12-20T06:09:59;12.38;;;3.95;;
37273;SDS011;23161;51.250;5.554;2023-12-20T06:12:25;5.93;;;4.05;;
37273;SDS011;23161;51.250;5.554;2023-12-20T06:14:53;12.52;;;5.18;;
37273;SDS011;23161;51.250;5.554;2023-12-20T06:17:19;9.35;;;4.03;;
37273;SDS011;23161;51.250;5.554;2023-12-20T06:19:45;10.98;;;5.68;;
37273;SDS011;23161;51.250;5.554;2023-12-20T06:22:13;13.68;;;6.80;;
37273;SDS011;23161;51.250;5.554;2023-12-20T06:24:42;10.37;;;5.13;;
37273;SDS011;23161;51.250;5.554;2023-12-20T06:27:08;16.40;;;5.82;;
37273;SDS011;23161;51.250;5.554;2023-12-20T06:29:34;12.57;;;5.22;;
37273;SDS011;23161;51.250;5.554;2023-12-20T06:32:00;9.50;;;4.28;;
37273;SDS011;23161;51.250;5.554;2023-12-20T06:34:25;14.40;;;5.32;;
37273;SDS011;23161;51.250;5.554;2023-12-20T06:36:51;8.50;;;4.35;;
37273;SDS011;23161;51.250;5.554;2023-12-20T06:39:17;16.60;;;5.65;;
37273;SDS011;23161;51.250;5.554;2023-12-20T06:41:43;6.93;;;4.45;;
37273;SDS011;23161;51.250;5.554;2023-12-20T06:44:08;23.58;;;4.47;;
37273;SDS011;23161;51.250;5.554;2023-12-20T06:46:34;12.75;;;5.18;;
37273;SDS011;23161;51.250;5.554;2023-12-20T06:49:00;11.07;;;5.13;;
37273;SDS011;23161;51.250;5.554;2023-12-20T06:51:26;13.82;;;6.07;;
37273;SDS011;23161;51.250;5.554;2023-12-20T06:53:52;13.18;;;5.05;;
37273;SDS011;23161;51.250;5.554;2023-12-20T06:56:18;16.02;;;5.32;;
37273;SDS011;23161;51.250;5.554;2023-12-20T06:58:44;14.25;;;5.72;;
37273;SDS011;23161;51.250;5.554;2023-12-20T07:01:13;16.70;;;5.45;;
37273;SDS011;23161;51.250;5.554;2023-12-20T07:03:40;15.30;;;5.45;;
37273;SDS011;23161;51.250;5.554;2023-12-20T07:06:07;10.18;;;5.32;;
37273;SDS011;23161;51.250;5.554;2023-12-20T07:08:33;12.48;;;5.53;;
37273;SDS011;23161;51.250;5.554;2023-12-20T07:10:59;6.03;;;3.78;;
37273;SDS011;23161;51.250;5.554;2023-12-20T07:13:25;14.25;;;5.03;;
37273;SDS011;23161;51.250;5.554;2023-12-20T07:15:50;6.97;;;4.55;;
37273;SDS011;23161;51.250;5.554;2023-12-20T07:18:16;23.45;;;4.45;;
37273;SDS011;23161;51.250;5.554;2023-12-20T07:20:42;14.00;;;5.28;;
37273;SDS011;23161;51.250;5.554;2023-12-20T07:23:08;19.42;;;7.97;;
37273;SDS011;23161;51.250;5.554;2023-12-20T07:25:34;11.25;;;5.75;;
37273;SDS011;23161;51.250;5.554;2023-12-20T07:28:00;18.77;;;5.55;;
37273;SDS011;23161;51.250;5.554;2023-12-20T07:30:26;10.90;;;4.28;;
37273;SDS011;23161;51.250;5.554;2023-12-20T07:32:51;27.60;;;7.03;;
37273;SDS011;23161;51.250;5.554;2023-12-20T07:35:18;14.48;;;7.57;;
37273;SDS011;23161;51.250;5.554;2023-12-20T07:37:44;13.15;;;6.50;;
37273;SDS011;23161;51.250;5.554;2023-12-20T07:40:10;14.73;;;7.85;;
37273;SDS011;23161;51.250;5.554;2023-12-20T07:42:36;9.07;;;7.05;;
37273;SDS011;23161;51.250;5.554;2023-12-20T07:45:02;14.68;;;9.77;;
37273;SDS011;23161;51.250;5.554;2023-12-20T07:47:28;17.35;;;7.28;;
37273;SDS011;23161;51.250;5.554;2023-12-20T07:49:54;10.15;;;6.72;;
37273;SDS011;23161;51.250;5.554;2023-12-20T07:52:20;11.43;;;5.00;;
37273;SDS011;23161;51.250;5.554;2023-12-20T07:54:47;7.90;;;4.95;;
37273;SDS011;23161;51.250;5.554;2023-12-20T07:57:13;22.70;;;6.90;;
37273;SDS011;23161;51.250;5.554;2023-12-20T07:59:39;15.48;;;6.78;;
37273;SDS011;23161;51.250;5.554;2023-12-20T08:02:05;12.93;;;4.72;;
37273;SDS011;23161;51.250;5.554;2023-12-20T08:04:31;7.43;;;3.60;;
37273;SDS011;23161;51.250;5.554;2023-12-20T08:06:58;18.58;;;6.50;;
37273;SDS011;23161;51.250;5.554;2023-12-20T08:09:23;10.65;;;5.88;;
37273;SDS011;23161;51.250;5.554;2023-12-20T08:11:49;17.05;;;4.25;;
37273;SDS011;23161;51.250;5.554;2023-12-20T08:14:15;13.32;;;4.88;;
37273;SDS011;23161;51.250;5.554;2023-12-20T08:16:41;3.78;;;3.47;;
37273;SDS011;23161;51.250;5.554;2023-12-20T08:19:07;10.73;;;5.72;;
37273;SDS011;23161;51.250;5.554;2023-12-20T08:21:33;11.50;;;4.32;;
37273;SDS011;23161;51.250;5.554;2023-12-20T08:23:59;14.23;;;4.93;;
37273;SDS011;23161;51.250;5.554;2023-12-20T08:26:26;7.43;;;5.20;;
37273;SDS011;23161;51.250;5.554;2023-12-20T08:28:51;23.02;;;5.82;;
37273;SDS011;23161;51.250;5.554;2023-12-20T08:31:17;9.05;;;5.00;;
37273;SDS011;23161;51.250;5.554;2023-12-20T08:33:44;10.95;;;4.70;;
37273;SDS011;23161;51.250;5.554;2023-12-20T08:36:11;17.90;;;4.78;;
37273;SDS011;23161;51.250;5.554;2023-12-20T08:38:37;15.43;;;4.57;;
37273;SDS011;23161;51.250;5.554;2023-12-20T08:41:03;16.90;;;5.82;;
37273;SDS011;23161;51.250;5.554;2023-12-20T08:43:35;20.97;;;4.23;;
37273;SDS011;23161;51.250;5.554;2023-12-20T08:46:01;7.00;;;3.42;;
37273;SDS011;23161;51.250;5.554;2023-12-20T08:48:28;13.32;;;4.75;;
37273;SDS011;23161;51.250;5.554;2023-12-20T08:50:54;11.38;;;4.55;;
37273;SDS011;23161;51.250;5.554;2023-12-20T08:53:19;9.90;;;4.88;;
37273;SDS011;23161;51.250;5.554;2023-12-20T08:55:46;7.43;;;3.95;;
37273;SDS011;23161;51.250;5.554;2023-12-20T08:58:12;8.40;;;5.00;;
37273;SDS011;23161;51.250;5.554;2023-12-20T09:00:38;18.10;;;5.78;;
37273;SDS011;23161;51.250;5.554;2023-12-20T09:03:04;11.57;;;4.45;;
37273;SDS011;23161;51.250;5.554;2023-12-20T09:05:30;10.18;;;4.70;;
37273;SDS011;23161;51.250;5.554;2023-12-20T09:07:56;9.02;;;5.55;;
37273;SDS011;23161;51.250;5.554;2023-12-20T09:10:22;10.25;;;5.07;;
37273;SDS011;23161;51.250;5.554;2023-12-20T09:12:49;14.75;;;6.50;;
37273;SDS011;23161;51.250;5.554;2023-12-20T09:15:15;5.15;;;3.88;;
37273;SDS011;23161;51.250;5.554;2023-12-20T09:17:41;9.13;;;4.95;;
37273;SDS011;23161;51.250;5.554;2023-12-20T09:20:09;18.92;;;7.38;;
37273;SDS011;23161;51.250;5.554;2023-12-20T09:22:35;8.70;;;3.75;;
37273;SDS011;23161;51.250;5.554;2023-12-20T09:25:01;20.42;;;6.22;;
37273;SDS011;23161;51.250;5.554;2023-12-20T09:27:27;18.15;;;6.63;;
37273;SDS011;23161;51.250;5.554;2023-12-20T09:29:53;10.52;;;7.03;;
37273;SDS011;23161;51.250;5.554;2023-12-20T09:32:19;10.10;;;4.68;;
37273;SDS011;23161;51.250;5.554;2023-12-20T09:34:47;8.70;;;5.80;;
37273;SDS011;23161;51.250;5.554;2023-12-20T09:37:13;15.52;;;7.97;;
37273;SDS011;23161;51.250;5.554;2023-12-20T09:39:39;12.07;;;7.03;;
37273;SDS011;23161;51.250;5.554;2023-12-20T09:42:05;10.35;;;5.75;;
37273;SDS011;23161;51.250;5.554;2023-12-20T09:44:33;20.45;;;6.28;;
37273;SDS011;23161;51.250;5.554;2023-12-20T09:47:02;24.38;;;8.90;;
37273;SDS011;23161;51.250;5.554;2023-12-20T09:49:29;9.02;;;4.25;;
37273;SDS011;23161;51.250;5.554;2023-12-20T09:51:56;14.25;;;6.28;;
37273;SDS011;23161;51.250;5.554;2023-12-20T09:54:22;17.55;;;5.97;;
37273;SDS011;23161;51.250;5.554;2023-12-20T09:56:49;13.65;;;5.70;;
37273;SDS011;23161;51.250;5.554;2023-12-20T09:59:15;22.02;;;4.97;;
37273;SDS011;23161;51.250;5.554;2023-12-20T10:01:41;8.85;;;4.40;;
37273;SDS011;23161;51.250;5.554;2023-12-20T10:04:10;17.33;;;6.55;;
37273;SDS011;23161;51.250;5.554;2023-12-20T10:06:40;14.75;;;7.28;;
37273;SDS011;23161;51.250;5.554;2023-12-20T10:09:06;13.15;;;6.40;;
37273;SDS011;23161;51.250;5.554;2023-12-20T10:11:32;18.02;;;7.68;;
37273;SDS011;23161;51.250;5.554;2023-12-20T10:14:02;18.35;;;5.15;;
37273;SDS011;23161;51.250;5.554;2023-12-20T10:16:29;17.58;;;5.95;;
37273;SDS011;23161;51.250;5.554;2023-12-20T10:18:55;8.68;;;5.25;;
37273;SDS011;23161;51.250;5.554;2023-12-20T10:21:22;12.02;;;6.47;;
37273;SDS011;23161;51.250;5.554;2023-12-20T10:23:49;24.67;;;6.75;;
37273;SDS011;23161;51.250;5.554;2023-12-20T10:26:19;8.88;;;6.25;;
37273;SDS011;23161;51.250;5.554;2023-12-20T10:28:46;21.23;;;7.57;;
37273;SDS011;23161;51.250;5.554;2023-12-20T10:31:28;10.88;;;6.22;;
37273;SDS011;23161;51.250;5.554;2023-12-20T10:33:58;9.02;;;3.92;;
37273;SDS011;23161;51.250;5.554;2023-12-20T10:36:28;5.70;;;3.55;;
37273;SDS011;23161;51.250;5.554;2023-12-20T10:38:55;12.13;;;6.43;;
37273;SDS011;23161;51.250;5.554;2023-12-20T10:41:27;19.85;;;5.22;;
37273;SDS011;23161;51.250;5.554;2023-12-20T10:43:55;8.18;;;4.80;;
37273;SDS011;23161;51.250;5.554;2023-12-20T10:46:29;12.15;;;4.90;;
37273;SDS011;23161;51.250;5.554;2023-12-20T10:48:55;13.45;;;3.35;;
37273;SDS011;23161;51.250;5.554;2023-12-20T10:51:22;10.95;;;5.03;;
37273;SDS011;23161;51.250;5.554;2023-12-20T10:53:52;5.38;;;4.18;;
37273;SDS011;23161;51.250;5.554;2023-12-20T10:56:19;7.40;;;4.10;;
37273;SDS011;23161;51.250;5.554;2023-12-20T10:58:51;13.68;;;4.22;;
37273;SDS011;23161;51.250;5.554;2023-12-20T11:01:18;10.80;;;7.40;;
37273;SDS011;23161;51.250;5.554;2023-12-20T11:03:46;6.32;;;3.88;;
37273;SDS011;23161;51.250;5.554;2023-12-20T11:09:04;9.80;;;4.95;;
37273;SDS011;23161;51.250;5.554;2023-12-20T11:14:47;10.77;;;5.10;;
37273;SDS011;23161;51.250;5.554;2023-12-20T11:17:13;14.40;;;4.65;;
37273;SDS011;23161;51.250;5.554;2023-12-20T11:22:26;12.70;;;6.43;;
37273;SDS011;23161;51.250;5.554;2023-12-20T11:24:57;12.23;;;4.45;;
37273;SDS011;23161;51.250;5.554;2023-12-20T11:27:27;9.90;;;4.47;;
37273;SDS011;23161;51.250;5.554;2023-12-20T11:29:54;15.48;;;5.75;;
37273;SDS011;23161;51.250;5.554;2023-12-20T11:34:56;13.48;;;5.38;;
37273;SDS011;23161;51.250;5.554;2023-12-20T11:40:03;19.90;;;5.00;;
37273;SDS011;23161;51.250;5.554;2023-12-20T11:42:37;13.57;;;4.75;;
37273;SDS011;23161;51.250;5.554;2023-12-20T11:45:19;5.45;;;3.35;;
37273;SDS011;23161;51.250;5.554;2023-12-20T11:47:49;6.80;;;4.00;;
37273;SDS011;23161;51.250;5.554;2023-12-20T11:50:16;14.07;;;6.38;;
37273;SDS011;23161;51.250;5.554;2023-12-20T11:52:42;9.35;;;4.70;;
37273;SDS011;23161;51.250;5.554;2023-12-20T11:55:08;8.65;;;4.10;;
37273;SDS011;23161;51.250;5.554;2023-12-20T11:57:35;11.60;;;3.78;;
37273;SDS011;23161;51.250;5.554;2023-12-20T12:00:02;8.52;;;4.20;;
37273;SDS011;23161;51.250;5.554;2023-12-20T12:02:37;5.18;;;4.45;;
37273;SDS011;23161;51.250;5.554;2023-12-20T12:05:03;10.75;;;5.15;;
37273;SDS011;23161;51.250;5.554;2023-12-20T12:07:31;15.07;;;5.43;;
37273;SDS011;23161;51.250;5.554;2023-12-20T12:09:57;7.88;;;3.92;;
37273;SDS011;23161;51.250;5.554;2023-12-20T12:12:23;5.97;;;3.95;;
37273;SDS011;23161;51.250;5.554;2023-12-20T12:14:50;19.17;;;6.13;;
37273;SDS011;23161;51.250;5.554;2023-12-20T12:17:16;11.75;;;4.53;;
37273;SDS011;23161;51.250;5.554;2023-12-20T12:19:42;10.75;;;6.95;;
37273;SDS011;23161;51.250;5.554;2023-12-20T12:22:09;11.50;;;5.32;;
37273;SDS011;23161;51.250;5.554;2023-12-20T12:27:08;7.32;;;4.78;;
37273;SDS011;23161;51.250;5.554;2023-12-20T12:29:34;6.57;;;4.13;;
37273;SDS011;23161;51.250;5.554;2023-12-20T12:32:04;6.07;;;5.38;;
37273;SDS011;23161;51.250;5.554;2023-12-20T12:34:34;15.68;;;6.57;;
37273;SDS011;23161;51.250;5.554;2023-12-20T12:37:01;13.52;;;4.60;;
37273;SDS011;23161;51.250;5.554;2023-12-20T12:39:29;9.60;;;6.15;;
37273;SDS011;23161;51.250;5.554;2023-12-20T12:41:55;11.10;;;8.60;;
37273;SDS011;23161;51.250;5.554;2023-12-20T12:44:21;21.40;;;8.02;;
37273;SDS011;23161;51.250;5.554;2023-12-20T12:46:48;14.77;;;9.77;;
37273;SDS011;23161;51.250;5.554;2023-12-20T12:49:19;32.42;;;17.20;;
37273;SDS011;23161;51.250;5.554;2023-12-20T12:51:46;23.08;;;14.95;;
37273;SDS011;23161;51.250;5.554;2023-12-20T12:54:12;25.23;;;15.90;;
37273;SDS011;23161;51.250;5.554;2023-12-20T12:56:40;26.73;;;13.98;;
37273;SDS011;23161;51.250;5.554;2023-12-20T12:59:06;18.15;;;11.70;;
37273;SDS011;23161;51.250;5.554;2023-12-20T13:01:32;27.38;;;10.63;;
37273;SDS011;23161;51.250;5.554;2023-12-20T13:03:59;25.35;;;13.45;;
37273;SDS011;23161;51.250;5.554;2023-12-20T13:06:26;38.63;;;16.67;;
37273;SDS011;23161;51.250;5.554;2023-12-20T13:08:52;14.73;;;9.70;;
37273;SDS011;23161;51.250;5.554;2023-12-20T13:11:18;9.77;;;6.38;;
37273;SDS011;23161;51.250;5.554;2023-12-20T13:13:44;18.27;;;14.02;;
37273;SDS011;23161;51.250;5.554;2023-12-20T13:16:10;16.92;;;9.18;;
37273;SDS011;23161;51.250;5.554;2023-12-20T13:18:36;19.50;;;8.70;;
37273;SDS011;23161;51.250;5.554;2023-12-20T13:21:02;30.17;;;16.27;;
37273;SDS011;23161;51.250;5.554;2023-12-20T13:23:28;20.50;;;13.48;;
37273;SDS011;23161;51.250;5.554;2023-12-20T13:25:54;12.35;;;8.68;;
37273;SDS011;23161;51.250;5.554;2023-12-20T13:28:20;24.23;;;7.63;;
37273;SDS011;23161;51.250;5.554;2023-12-20T13:30:46;15.82;;;8.57;;
37273;SDS011;23161;51.250;5.554;2023-12-20T13:33:12;18.50;;;7.97;;
37273;SDS011;23161;51.250;5.554;2023-12-20T13:35:37;15.70;;;6.32;;
37273;SDS011;23161;51.250;5.554;2023-12-20T13:38:04;11.30;;;7.80;;
37273;SDS011;23161;51.250;5.554;2023-12-20T13:40:30;14.80;;;6.00;;
37273;SDS011;23161;51.250;5.554;2023-12-20T13:42:56;11.85;;;6.68;;
37273;SDS011;23161;51.250;5.554;2023-12-20T13:45:22;10.63;;;4.88;;
37273;SDS011;23161;51.250;5.554;2023-12-20T13:47:48;16.95;;;7.90;;
37273;SDS011;23161;51.250;5.554;2023-12-20T13:50:14;5.95;;;4.03;;
37273;SDS011;23161;51.250;5.554;2023-12-20T13:52:40;8.40;;;5.22;;
37273;SDS011;23161;51.250;5.554;2023-12-20T13:55:06;9.48;;;6.32;;
37273;SDS011;23161;51.250;5.554;2023-12-20T13:57:33;11.60;;;7.35;;
37273;SDS011;23161;51.250;5.554;2023-12-20T14:00:02;9.30;;;6.10;;
37273;SDS011;23161;51.250;5.554;2023-12-20T14:04:58;15.13;;;11.63;;
37273;SDS011;23161;51.250;5.554;2023-12-20T14:07:23;10.98;;;7.82;;
37273;SDS011;23161;51.250;5.554;2023-12-20T14:09:49;23.17;;;7.05;;
37273;SDS011;23161;51.250;5.554;2023-12-20T14:12:15;10.93;;;5.95;;
37273;SDS011;23161;51.250;5.554;2023-12-20T14:14:41;9.05;;;7.03;;
37273;SDS011;23161;51.250;5.554;2023-12-20T14:17:06;26.33;;;7.78;;
37273;SDS011;23161;51.250;5.554;2023-12-20T14:19:32;17.15;;;11.48;;
37273;SDS011;23161;51.250;5.554;2023-12-20T14:21:58;26.40;;;10.38;;
37273;SDS011;23161;51.250;5.554;2023-12-20T14:24:28;12.20;;;5.82;;
37273;SDS011;23161;51.250;5.554;2023-12-20T14:26:53;16.73;;;6.50;;
37273;SDS011;23161;51.250;5.554;2023-12-20T14:29:19;9.75;;;6.07;;
37273;SDS011;23161;51.250;5.554;2023-12-20T14:31:45;9.63;;;4.75;;
37273;SDS011;23161;51.250;5.554;2023-12-20T14:34:11;13.43;;;5.18;;
37273;SDS011;23161;51.250;5.554;2023-12-20T14:36:37;16.67;;;5.72;;
37273;SDS011;23161;51.250;5.554;2023-12-20T14:39:04;4.65;;;3.88;;
37273;SDS011;23161;51.250;5.554;2023-12-20T14:41:31;11.40;;;4.32;;
37273;SDS011;23161;51.250;5.554;2023-12-20T14:43:56;8.82;;;5.25;;
37273;SDS011;23161;51.250;5.554;2023-12-20T14:46:22;6.10;;;3.85;;
37273;SDS011;23161;51.250;5.554;2023-12-20T14:48:48;11.65;;;4.45;;
37273;SDS011;23161;51.250;5.554;2023-12-20T14:51:15;7.07;;;5.22;;
37273;SDS011;23161;51.250;5.554;2023-12-20T14:53:40;7.95;;;3.92;;